»·PEaware :: N234CL KSUN-KBOI

N234CL :: KSUN-KBOI

FLIGHT INFORMATION

Flight Status: Arrived
Operator: Privately registered:
United States
More flights under this callsign
Pilot: Christian L. (6360)
Aircraft: PIPER PA-24 COMMANCHE
(PA24)
More flights by this aircraft type
Origin: KSUN Friedman Meml
United States
Destination: KBOI Boise Air Terminal/Gowen
United States
More flights between these airports :: More routes between these airports
Route: AUREL3 PRESN KINZE V330 ALKAL V253 BOI
File this flight plan on PilotEdge
Remarks:
Altitude:
(Current/Filed)
10,000ft
Speed:
(Current/Filed)
150kts
Departed: 30-Aug-18 10:53 AM
Arrived: 30-Aug-18 12:32 PM
Distance/Time
Traveled:
83nm/1:38
Distance/Time
To Go:
Arrived

Flight Plot

Page will automatically refresh every two minutes.

Flight plan parsing failed; only flown route is shown


Map Options




Map Legend


Flown Route
Filed Route
Departure Airport
Arrival Airport
Navaid (VOR, NDB)
Fix

Horizontal Profiles

Position Reports

Time Latitude Longitude Heading Altitude Ground
Speed
30-Aug-18 10:37 43.508602 -114.302048 54 5323ft 0kts
30-Aug-18 10:38 43.508602 -114.302048 54 5323ft 0kts
30-Aug-18 10:39 43.508602 -114.302048 54 5323ft 0kts
30-Aug-18 10:40 43.508602 -114.302048 54 5323ft 0kts
30-Aug-18 10:41 43.508624 -114.302005 54 5323ft 0kts
30-Aug-18 10:42 43.508626 -114.302002 54 5323ft 0kts
30-Aug-18 10:43 43.508628 -114.301998 54 5323ft 0kts
30-Aug-18 10:44 43.508630 -114.301995 54 5323ft 0kts
30-Aug-18 10:45 43.508632 -114.301991 54 5323ft 0kts
30-Aug-18 10:46 43.508633 -114.301988 54 5323ft 0kts
30-Aug-18 10:47 43.508634 -114.301985 54 5323ft 0kts
30-Aug-18 10:48 43.508636 -114.301983 54 5323ft 0kts
30-Aug-18 10:49 43.508637 -114.301980 54 5323ft 0kts
30-Aug-18 10:50 43.509354 -114.301941 322 5323ft 2kts
30-Aug-18 10:51 43.511194 -114.303425 51 5323ft 0kts
30-Aug-18 10:52 43.511195 -114.303422 51 5323ft 0kts
30-Aug-18 10:53 43.511197 -114.303420 51 5323ft 0kts
30-Aug-18 10:54 43.504682 -114.296275 139 5365ft 93kts
30-Aug-18 10:55 43.481100 -114.273999 146 6366ft 104kts
30-Aug-18 10:56 43.453071 -114.261313 165 7210ft 108kts
30-Aug-18 10:57 43.423130 -114.250528 165 8317ft 118kts
30-Aug-18 10:58 43.393130 -114.239489 171 9575ft 108kts
30-Aug-18 10:59 43.360767 -114.228189 169 9997ft 143kts
30-Aug-18 11:00 43.320013 -114.218488 203 9963ft 147kts
30-Aug-18 11:01 43.285270 -114.247660 213 9985ft 151kts
30-Aug-18 11:02 43.249962 -114.278908 213 9989ft 150kts
30-Aug-18 11:03 43.213962 -114.307780 211 9992ft 151kts
30-Aug-18 11:04 43.175870 -114.334260 206 9986ft 157kts
30-Aug-18 11:05 43.135799 -114.358589 207 9981ft 160kts
30-Aug-18 11:06 43.095532 -114.381093 204 9965ft 152kts
30-Aug-18 11:07 43.078924 -114.426354 262 9978ft 157kts
30-Aug-18 11:08 43.074408 -114.485561 262 9969ft 156kts
30-Aug-18 11:09 43.071300 -114.543692 264 9959ft 151kts
30-Aug-18 11:10 43.067174 -114.601220 263 9964ft 155kts
30-Aug-18 11:11 43.063438 -114.659573 264 9965ft 154kts
30-Aug-18 11:12 43.058909 -114.718151 262 9970ft 158kts
30-Aug-18 11:13 43.055055 -114.777031 264 9963ft 153kts
30-Aug-18 11:14 43.051458 -114.834051 261 9957ft 148kts
30-Aug-18 11:15 43.047553 -114.890231 264 9957ft 149kts
30-Aug-18 11:16 43.043444 -114.946424 262 9950ft 149kts
30-Aug-18 11:17 43.039445 -115.003032 264 9941ft 148kts
30-Aug-18 11:18 43.035861 -115.059302 262 9939ft 149kts
30-Aug-18 11:19 43.031245 -115.115916 262 9939ft 152kts
30-Aug-18 11:20 43.027678 -115.173392 263 9934ft 151kts
30-Aug-18 11:21 43.022920 -115.231121 261 9937ft 158kts
30-Aug-18 11:22 43.019133 -115.289190 263 9926ft 148kts
30-Aug-18 11:23 43.015708 -115.345168 271 9921ft 148kts
30-Aug-18 11:24 43.030536 -115.397396 304 9919ft 152kts
30-Aug-18 11:25 43.060724 -115.438611 298 9917ft 151kts
30-Aug-18 11:26 43.083532 -115.486392 320 9912ft 156kts
30-Aug-18 11:27 43.121275 -115.516264 325 9916ft 157kts
30-Aug-18 11:28 43.157797 -115.548485 305 9909ft 153kts
30-Aug-18 11:29 43.183607 -115.595633 303 9275ft 152kts
30-Aug-18 11:30 43.209607 -115.624058 346 8419ft 168kts
30-Aug-18 11:31 43.253437 -115.634627 346 7909ft 161kts
30-Aug-18 11:32 43.296859 -115.646168 345 8000ft 157kts
30-Aug-18 11:33 43.337358 -115.666050 316 8007ft 155kts
30-Aug-18 11:34 43.370546 -115.705932 316 7961ft 168kts
30-Aug-18 11:35 43.405143 -115.748750 316 7926ft 167kts
30-Aug-18 11:36 43.421420 -115.805975 291 7917ft 160kts
30-Aug-18 11:37 43.441096 -115.860382 295 7912ft 158kts
30-Aug-18 11:38 43.460354 -115.915749 294 7600ft 158kts
30-Aug-18 11:39 43.477416 -115.967957 294 6623ft 138kts
30-Aug-18 11:40 43.488979 -116.001020 292 6172ft 105kts
30-Aug-18 11:41 43.500058 -116.030672 299 5315ft 99kts
30-Aug-18 11:42 43.511095 -116.064637 300 5100ft 98kts
30-Aug-18 11:43 43.522905 -116.097818 295 4569ft 84kts
30-Aug-18 11:44 43.532085 -116.125128 291 4106ft 90kts
30-Aug-18 11:45 43.543200 -116.157183 295 3629ft 91kts
30-Aug-18 11:46 43.553325 -116.186806 294 3271ft 86kts
30-Aug-18 11:47 43.562960 -116.221156 290 3728ft 105kts
30-Aug-18 11:48 43.575107 -116.258378 297 4156ft 105kts
30-Aug-18 11:49 43.589111 -116.296004 299 4609ft 116kts
30-Aug-18 11:50 43.603709 -116.334208 294 5269ft 111kts
30-Aug-18 11:51 43.616700 -116.373214 294 5877ft 113kts
30-Aug-18 11:52 43.632607 -116.418538 297 5897ft 142kts
30-Aug-18 11:53 43.645036 -116.451984 296 5894ft 157kts
30-Aug-18 11:54 43.665202 -116.507366 299 5893ft 162kts
30-Aug-18 11:55 43.668469 -116.558191 204 5869ft 148kts
30-Aug-18 11:56 43.648983 -116.522172 77 5890ft 159kts
30-Aug-18 11:57 43.653491 -116.463604 102 5884ft 150kts
30-Aug-18 11:58 43.624521 -116.455371 247 5891ft 154kts
30-Aug-18 11:59 43.636711 -116.511541 294 5884ft 157kts
30-Aug-18 12:00 43.659750 -116.558432 354 5858ft 155kts
30-Aug-18 12:01 43.673362 -116.513337 106 5888ft 155kts
30-Aug-18 12:02 43.655940 -116.459129 118 5896ft 154kts
30-Aug-18 12:03 43.629506 -116.473197 268 5905ft 147kts
30-Aug-18 12:04 43.632169 -116.531037 273 5880ft 152kts
30-Aug-18 12:05 43.657799 -116.555618 51 5869ft 160kts
30-Aug-18 12:06 43.661129 -116.495800 97 5879ft 159kts
30-Aug-18 12:07 43.643618 -116.444993 146 5902ft 151kts
30-Aug-18 12:08 43.609623 -116.414262 145 6810ft 147kts
30-Aug-18 12:09 43.573753 -116.378050 145 6920ft 162kts
30-Aug-18 12:10 43.535572 -116.342680 145 6893ft 170kts
30-Aug-18 12:11 43.508998 -116.316593 143 6889ft 167kts
30-Aug-18 12:12 43.507115 -116.314670 143 6886ft 167kts
30-Aug-18 12:13 43.473355 -116.283279 146 6880ft 163kts
30-Aug-18 12:14 43.435695 -116.247098 144 6888ft 168kts
30-Aug-18 12:15 43.417996 -116.189461 106 6904ft 171kts
30-Aug-18 12:16 43.404212 -116.127400 106 6907ft 171kts
30-Aug-18 12:17 43.392083 -116.066081 106 6902ft 164kts
30-Aug-18 12:18 43.379372 -116.005561 106 6903ft 166kts
30-Aug-18 12:19 43.366895 -115.943692 104 6911ft 171kts
30-Aug-18 12:20 43.354901 -115.882980 105 6906ft 161kts
30-Aug-18 12:21 43.376618 -115.840241 14 6927ft 169kts
30-Aug-18 12:22 43.416677 -115.854501 314 6916ft 160kts
30-Aug-18 12:23 43.444547 -115.897715 306 6881ft 141kts
30-Aug-18 12:24 43.465529 -115.933125 299 6838ft 113kts
30-Aug-18 12:25 43.477754 -115.970221 303 6235ft 101kts
30-Aug-18 12:26 43.490830 -116.004755 294 5837ft 104kts
30-Aug-18 12:27 43.503589 -116.041712 295 5512ft 106kts
30-Aug-18 12:28 43.516182 -116.077382 293 4854ft 99kts
30-Aug-18 12:29 43.527575 -116.111297 293 4344ft 96kts
30-Aug-18 12:30 43.538149 -116.144388 293 3906ft 91kts
30-Aug-18 12:31 43.548920 -116.176267 288 3277ft 91kts
30-Aug-18 12:32 43.559777 -116.206313 291 2886ft 80kts
30-Aug-18 12:33 43.563753 -116.216334 4 2874ft 9kts
30-Aug-18 12:35 43.564474 -116.214213 27 2874ft 14kts
30-Aug-18 12:35 43.565224 -116.213546 260 2874ft 0kts

Navigation Log

Ident Type
Flight plan parsing failed, navigation log unavailable